22°C Temp
-3°C Dewpoint
% Humidity
Temperature
23 KM/H
14 MPH
12 KTS
280°
Due West

Wind Speed
Clear
Conditions
Pressure 1019.92 (hPa) - 30.12 (in)
Visibility 6.2 (mi) - 10.0 (km)

Current Conditions
YBBN
Location 15(km)
Metar :YBBN 170200Z 28012KT CAVOK 22/M03 Q1020
Mon 17th May 12:00 pm

Airport
  Metar Aviation API Data Provided by https://www.checkwx.com/ PHP scripts by weather34.com ©2021